createdAt,value
2022-12-23T00:01:53.602Z,6.01
2022-12-23T00:06:56.852Z,6.05
2022-12-23T00:12:18.502Z,6.03
2022-12-23T00:17:22.947Z,6.00
2022-12-23T00:22:46.817Z,5.98
2022-12-23T00:28:01.698Z,5.97
2022-12-23T00:33:05.732Z,5.96
2022-12-23T00:38:09.033Z,5.94
2022-12-23T00:43:12.156Z,5.99
2022-12-23T00:48:34.218Z,6.05
2022-12-23T00:53:37.502Z,6.07
2022-12-23T00:58:40.631Z,6.07
2022-12-23T01:04:02.361Z,6.09
2022-12-23T01:09:05.664Z,6.11
2022-12-23T01:14:09.561Z,6.14
2022-12-23T01:19:13.104Z,6.13
2022-12-23T01:24:16.231Z,6.10
2022-12-23T01:29:19.418Z,6.12
2022-12-23T01:34:22.436Z,6.15
2022-12-23T01:39:25.529Z,6.20
2022-12-23T01:44:56.521Z,6.14
2022-12-23T01:50:31.384Z,6.10
2022-12-23T01:56:00.665Z,6.12
2022-12-23T02:01:24.558Z,6.07
2022-12-23T02:07:01.567Z,6.03
2022-12-23T02:12:30.784Z,6.02
2022-12-23T02:18:04.626Z,6.07
2022-12-23T02:24:02.300Z,6.11
2022-12-23T02:29:52.606Z,6.16
2022-12-23T02:35:34.304Z,6.14
2022-12-23T02:40:49.298Z,6.07
2022-12-23T02:46:00.552Z,6.11
2022-12-23T02:51:07.077Z,6.18
2022-12-23T02:56:14.225Z,6.11
2022-12-23T03:01:19.838Z,6.01
2022-12-23T03:06:40.783Z,5.98
2022-12-23T03:12:09.020Z,5.88
2022-12-23T03:17:31.322Z,5.85
2022-12-23T03:23:03.926Z,5.85
2022-12-23T03:28:18.898Z,5.86
2022-12-23T03:33:39.925Z,5.91
2022-12-23T03:38:46.071Z,5.84
2022-12-23T03:44:02.436Z,5.74
2022-12-23T03:49:17.338Z,5.67
2022-12-23T03:54:31.637Z,5.70
2022-12-23T03:59:42.765Z,5.72
2022-12-23T04:05:00.937Z,5.75
2022-12-23T04:10:07.893Z,5.71
2022-12-23T04:15:13.411Z,5.67
2022-12-23T04:20:17.421Z,5.72
2022-12-23T04:25:21.027Z,5.73
2022-12-23T04:30:28.068Z,5.76
2022-12-23T04:35:36.689Z,5.68
2022-12-23T04:40:39.772Z,5.68
2022-12-23T04:45:42.977Z,5.70
2022-12-23T04:50:46.106Z,5.70
2022-12-23T04:55:52.478Z,5.73
2022-12-23T05:01:22.094Z,5.70
2022-12-23T05:06:25.310Z,5.76
2022-12-23T05:11:28.408Z,5.76
2022-12-23T05:16:31.896Z,5.75
2022-12-23T05:21:35.134Z,5.70
2022-12-23T05:26:38.245Z,5.60
2022-12-23T05:31:41.472Z,5.53
2022-12-23T05:36:44.487Z,5.49
2022-12-23T05:41:47.663Z,5.50
2022-12-23T05:46:50.905Z,5.53
2022-12-23T05:51:53.973Z,5.49
2022-12-23T05:56:57.081Z,5.54
2022-12-23T06:02:00.255Z,5.63
2022-12-23T06:07:03.814Z,5.73
2022-12-23T06:12:07.795Z,5.76
2022-12-23T06:17:10.847Z,5.70
2022-12-23T06:22:14.931Z,5.58
2022-12-23T06:27:19.098Z,5.55
2022-12-23T06:32:22.208Z,5.54
2022-12-23T06:37:25.414Z,5.51
2022-12-23T06:42:28.591Z,5.47
2022-12-23T06:47:32.063Z,5.46
2022-12-23T06:52:35.349Z,5.45
2022-12-23T06:57:38.450Z,5.45
2022-12-23T07:02:41.776Z,5.45
2022-12-23T07:07:45.107Z,5.43
2022-12-23T07:12:50.850Z,5.45
2022-12-23T07:17:55.504Z,5.49
2022-12-23T07:22:59.103Z,5.45
2022-12-23T07:28:02.117Z,5.42
2022-12-23T07:33:05.207Z,5.44
2022-12-23T07:38:09.899Z,5.46
2022-12-23T07:43:13.064Z,5.48
2022-12-23T07:48:16.167Z,5.47
2022-12-23T07:53:19.279Z,5.40
2022-12-23T07:58:22.589Z,5.43
2022-12-23T08:03:25.894Z,5.45
2022-12-23T08:08:29.617Z,5.44
2022-12-23T08:13:36.065Z,5.41
2022-12-23T08:18:41.802Z,5.46
2022-12-23T08:23:47.513Z,5.59
2022-12-23T08:28:53.746Z,5.73
2022-12-23T08:34:00.188Z,5.75
2022-12-23T08:39:10.481Z,5.67
2022-12-23T08:44:15.217Z,5.60
2022-12-23T08:49:18.394Z,5.52
2022-12-23T08:54:22.489Z,5.55
2022-12-23T08:59:25.894Z,5.60
2022-12-23T09:04:28.976Z,5.60
2022-12-23T09:09:32.114Z,5.61
2022-12-23T09:14:35.399Z,5.64
2022-12-23T09:19:38.432Z,5.61
2022-12-23T09:24:41.606Z,5.67
2022-12-23T09:29:44.738Z,5.68
2022-12-23T09:34:47.930Z,5.73
2022-12-23T09:39:51.127Z,5.69
2022-12-23T09:45:40.732Z,5.62
2022-12-23T09:50:45.730Z,5.57
2022-12-23T09:56:02.660Z,5.61
2022-12-23T10:01:45.316Z,5.64
2022-12-23T10:07:03.248Z,5.62
2022-12-23T10:12:27.209Z,5.59
2022-12-23T10:17:41.984Z,5.60
2022-12-23T10:22:47.417Z,5.67
2022-12-23T10:27:50.639Z,5.77
2022-12-23T10:33:23.374Z,5.83
2022-12-23T10:38:53.276Z,5.84
2022-12-23T10:44:23.105Z,5.81
2022-12-23T10:49:45.584Z,5.80
2022-12-23T10:54:49.525Z,5.87
2022-12-23T10:59:52.703Z,5.91
2022-12-23T11:04:55.915Z,5.96
2022-12-23T11:10:13.492Z,5.99
2022-12-23T11:15:39.567Z,6.01
2022-12-23T11:20:46.635Z,5.98
2022-12-23T11:25:59.744Z,6.06
2022-12-23T11:31:12.138Z,6.15
2022-12-23T11:36:24.963Z,6.21
2022-12-23T11:41:35.379Z,6.24
2022-12-23T11:46:38.716Z,6.29
2022-12-23T11:51:44.643Z,6.32
2022-12-23T11:56:53.853Z,6.39
2022-12-23T12:02:02.600Z,6.44
2022-12-23T12:07:12.312Z,6.46
2022-12-23T12:12:21.890Z,6.45
2022-12-23T12:17:38.384Z,6.40
2022-12-23T12:22:59.409Z,6.31
2022-12-23T12:28:13.882Z,6.41
2022-12-23T12:33:28.260Z,6.41
2022-12-23T12:38:33.737Z,6.47
2022-12-23T12:43:48.947Z,6.55
2022-12-23T12:48:57.932Z,6.49
2022-12-23T12:54:45.863Z,6.39
2022-12-23T13:00:05.222Z,6.42
2022-12-23T13:05:53.579Z,6.47
2022-12-23T13:11:09.771Z,6.48
2022-12-23T13:17:11.537Z,6.44
2022-12-23T13:22:33.586Z,6.43
2022-12-23T13:28:08.195Z,6.35
2022-12-23T13:33:28.559Z,6.30
2022-12-23T13:38:56.457Z,6.31
2022-12-23T13:44:06.721Z,6.34
2022-12-23T13:49:57.068Z,6.47
2022-12-23T13:55:38.975Z,6.52
2022-12-23T14:00:43.275Z,6.50
2022-12-23T14:05:51.047Z,6.41
2022-12-23T14:11:12.642Z,6.37
2022-12-23T14:16:47.388Z,6.32
2022-12-23T14:22:13.142Z,6.35
2022-12-23T14:27:40.631Z,6.33
2022-12-23T14:32:54.365Z,6.25
2022-12-23T14:38:16.026Z,6.21
2022-12-23T14:43:22.336Z,6.19
2022-12-23T14:48:34.907Z,6.11
2022-12-23T14:53:57.951Z,6.10
2022-12-23T14:59:04.057Z,6.17
2022-12-23T15:04:17.100Z,6.20
2022-12-23T15:09:26.813Z,6.19
2022-12-23T15:14:47.173Z,6.15
2022-12-23T15:19:51.726Z,6.14
2022-12-23T15:24:55.940Z,6.06
2022-12-23T15:30:00.197Z,6.06
2022-12-23T15:35:06.971Z,6.05
2022-12-23T15:40:42.030Z,6.05
2022-12-23T15:45:45.444Z,6.02
2022-12-23T15:50:51.507Z,5.94
2022-12-23T15:55:55.438Z,5.91
2022-12-23T16:01:01.040Z,5.90
2022-12-23T16:06:26.029Z,5.96
2022-12-23T16:11:38.579Z,5.97
2022-12-23T16:16:43.687Z,5.97
2022-12-23T16:21:46.910Z,5.93
2022-12-23T16:26:50.119Z,5.94
2022-12-23T16:32:01.448Z,5.96
2022-12-23T16:37:05.354Z,6.04
2022-12-23T16:42:08.654Z,6.06
2022-12-23T16:47:17.577Z,6.01
2022-12-23T16:52:24.474Z,5.97
2022-12-23T16:57:27.603Z,6.00
2022-12-23T17:02:34.633Z,6.02
2022-12-23T17:07:43.219Z,6.04
2022-12-23T17:12:50.761Z,6.00
2022-12-23T17:17:54.772Z,6.02
2022-12-23T17:23:00.338Z,5.98
2022-12-23T17:28:10.112Z,5.98
2022-12-23T17:33:19.467Z,5.90
2022-12-23T17:38:22.871Z,5.82
2022-12-23T17:43:26.995Z,5.74
2022-12-23T17:48:32.084Z,5.75
2022-12-23T17:53:35.511Z,5.87
2022-12-23T17:58:38.670Z,5.86
2022-12-23T18:03:41.802Z,5.90
2022-12-23T18:08:46.228Z,5.90
2022-12-23T18:13:52.859Z,5.85
2022-12-23T18:18:56.313Z,5.75
2022-12-23T18:24:00.444Z,5.72
2022-12-23T18:29:03.671Z,5.75
2022-12-23T18:34:06.863Z,5.74
2022-12-23T18:39:10.275Z,5.78
2022-12-23T18:44:21.261Z,5.80
2022-12-23T18:49:24.489Z,5.77
2022-12-23T18:54:28.316Z,5.72
2022-12-23T18:59:33.277Z,5.66
2022-12-23T19:04:36.359Z,5.69
2022-12-23T19:09:39.565Z,5.68
2022-12-23T19:14:42.770Z,5.75
2022-12-23T19:19:45.884Z,5.77
2022-12-23T19:25:04.510Z,5.76
2022-12-23T19:30:14.782Z,5.74
2022-12-23T19:35:18.072Z,5.71
2022-12-23T19:40:23.929Z,5.68
2022-12-23T19:45:27.322Z,5.71
2022-12-23T19:50:30.756Z,5.77
2022-12-23T19:55:34.147Z,5.79
2022-12-23T20:00:37.353Z,5.76
2022-12-23T20:05:40.873Z,5.78
2022-12-23T20:10:44.695Z,5.76
2022-12-23T20:15:47.893Z,5.75
2022-12-23T20:20:51.928Z,5.70
2022-12-23T20:25:55.842Z,5.72
2022-12-23T20:31:22.663Z,5.75
2022-12-23T20:36:31.278Z,5.74
2022-12-23T20:41:35.073Z,5.78
2022-12-23T20:46:38.317Z,5.73
2022-12-23T20:51:41.598Z,5.65
2022-12-23T20:56:44.695Z,5.60
2022-12-23T21:01:47.961Z,5.64
2022-12-23T21:06:51.320Z,5.60
2022-12-23T21:11:54.636Z,5.55
2022-12-23T21:16:57.763Z,5.37
2022-12-23T21:22:01.630Z,5.18
2022-12-23T21:27:04.768Z,5.04
2022-12-23T21:32:07.981Z,4.97
2022-12-23T21:37:11.087Z,4.92
2022-12-23T21:42:14.098Z,4.86
2022-12-23T21:47:17.518Z,4.83
2022-12-23T21:52:20.809Z,4.81
2022-12-23T21:57:24.221Z,4.82
2022-12-23T22:02:27.463Z,4.85
2022-12-23T22:07:30.673Z,4.90
2022-12-23T22:12:33.850Z,4.95
2022-12-23T22:17:37.083Z,5.07
2022-12-23T22:22:40.169Z,5.12
2022-12-23T22:27:45.332Z,5.10
2022-12-23T22:32:48.521Z,5.06
2022-12-23T22:37:51.649Z,4.98
2022-12-23T22:42:54.835Z,4.98
2022-12-23T22:47:57.946Z,5.01
2022-12-23T22:53:01.259Z,5.17
2022-12-23T22:58:04.365Z,5.24
2022-12-23T23:03:07.570Z,5.22
2022-12-23T23:08:12.622Z,5.10
2022-12-23T23:13:15.766Z,4.93
2022-12-23T23:18:19.258Z,4.86
2022-12-23T23:23:22.474Z,4.81
2022-12-23T23:28:25.666Z,4.82
2022-12-23T23:33:28.781Z,4.84
2022-12-23T23:38:31.978Z,4.84
2022-12-23T23:43:35.291Z,4.85
2022-12-23T23:48:39.624Z,4.80
2022-12-23T23:53:42.735Z,4.75
2022-12-23T23:58:45.947Z,4.66
